Beaver Bay, Minnesota
Current Conditions -  °F | °C
As of 11:14 PM on Monday 22 Dec 2014 (Local Time) from KBFW Reporting Station
Drizzle Drizzle  
Wind Chill: 32°   Ceiling: 300
Heat Index: 36°   Visibility: 3mi
Dew Point: 36°   Wind: 5mph
Humidity: 100%   Direction: 30°NNE
Pressure: 29.76"   Gusts: NA
Location:  47.26°N, 91.3°W
Report Text: KBFW 230514Z AUTO 03004KT 3SM -DZ OVC003 02/02 A2976 RMK AO2
Loading
Personal Weather Stations






























Interactive Weather Map New forecast layout! Learn more

10-Day Weather Forecast

Advertisements
Track Severe Weather on mobile